sensor_id;sensor_type;location;lat;lon;timestamp;P1;durP1;ratioP1;P2;durP2;ratioP2
73898;SDS011;62234;50.892;12.724;2024-03-06T00:01:54;24.60;;;11.90;;
73898;SDS011;62234;50.892;12.724;2024-03-06T00:04:20;30.67;;;12.45;;
73898;SDS011;62234;50.892;12.724;2024-03-06T00:06:46;25.80;;;12.70;;
73898;SDS011;62234;50.892;12.724;2024-03-06T00:09:12;24.88;;;11.50;;
73898;SDS011;62234;50.892;12.724;2024-03-06T00:11:38;24.92;;;13.07;;
73898;SDS011;62234;50.892;12.724;2024-03-06T00:14:05;28.48;;;13.85;;
73898;SDS011;62234;50.892;12.724;2024-03-06T00:16:31;30.50;;;13.50;;
73898;SDS011;62234;50.892;12.724;2024-03-06T00:18:57;30.63;;;14.20;;
73898;SDS011;62234;50.892;12.724;2024-03-06T00:21:23;27.50;;;11.57;;
73898;SDS011;62234;50.892;12.724;2024-03-06T00:23:49;21.88;;;11.80;;
73898;SDS011;62234;50.892;12.724;2024-03-06T00:26:15;28.58;;;14.50;;
73898;SDS011;62234;50.892;12.724;2024-03-06T00:28:41;25.05;;;13.63;;
73898;SDS011;62234;50.892;12.724;2024-03-06T00:31:06;25.08;;;12.05;;
73898;SDS011;62234;50.892;12.724;2024-03-06T00:33:32;35.10;;;13.40;;
73898;SDS011;62234;50.892;12.724;2024-03-06T00:35:58;25.77;;;12.25;;
73898;SDS011;62234;50.892;12.724;2024-03-06T00:38:24;29.08;;;13.65;;
73898;SDS011;62234;50.892;12.724;2024-03-06T00:40:50;31.95;;;14.57;;
73898;SDS011;62234;50.892;12.724;2024-03-06T00:43:16;25.50;;;13.00;;
73898;SDS011;62234;50.892;12.724;2024-03-06T00:45:43;28.52;;;13.57;;
73898;SDS011;62234;50.892;12.724;2024-03-06T00:48:08;39.60;;;14.70;;
73898;SDS011;62234;50.892;12.724;2024-03-06T00:50:34;26.63;;;12.43;;
73898;SDS011;62234;50.892;12.724;2024-03-06T00:53:00;24.80;;;12.25;;
73898;SDS011;62234;50.892;12.724;2024-03-06T00:55:26;30.67;;;12.90;;
73898;SDS011;62234;50.892;12.724;2024-03-06T00:57:52;27.80;;;13.23;;
73898;SDS011;62234;50.892;12.724;2024-03-06T01:00:19;28.77;;;12.90;;
73898;SDS011;62234;50.892;12.724;2024-03-06T01:02:45;30.17;;;13.20;;
73898;SDS011;62234;50.892;12.724;2024-03-06T01:05:11;26.85;;;12.00;;
73898;SDS011;62234;50.892;12.724;2024-03-06T01:07:37;29.90;;;12.52;;
73898;SDS011;62234;50.892;12.724;2024-03-06T01:10:04;27.50;;;11.98;;
73898;SDS011;62234;50.892;12.724;2024-03-06T01:12:33;27.02;;;11.95;;
73898;SDS011;62234;50.892;12.724;2024-03-06T01:14:59;25.88;;;11.90;;
73898;SDS011;62234;50.892;12.724;2024-03-06T01:17:25;27.67;;;12.55;;
73898;SDS011;62234;50.892;12.724;2024-03-06T01:19:51;23.90;;;11.80;;
73898;SDS011;62234;50.892;12.724;2024-03-06T01:22:17;28.98;;;12.02;;
73898;SDS011;62234;50.892;12.724;2024-03-06T01:24:43;26.02;;;11.52;;
73898;SDS011;62234;50.892;12.724;2024-03-06T01:27:09;25.50;;;10.90;;
73898;SDS011;62234;50.892;12.724;2024-03-06T01:29:35;21.63;;;11.18;;
73898;SDS011;62234;50.892;12.724;2024-03-06T01:32:01;23.55;;;11.40;;
73898;SDS011;62234;50.892;12.724;2024-03-06T01:34:27;20.75;;;10.80;;
73898;SDS011;62234;50.892;12.724;2024-03-06T01:36:53;23.65;;;10.88;;
73898;SDS011;62234;50.892;12.724;2024-03-06T01:39:19;21.23;;;10.00;;
73898;SDS011;62234;50.892;12.724;2024-03-06T01:41:46;19.73;;;9.85;;
73898;SDS011;62234;50.892;12.724;2024-03-06T01:44:12;23.30;;;11.30;;
73898;SDS011;62234;50.892;12.724;2024-03-06T01:46:38;25.88;;;11.27;;
73898;SDS011;62234;50.892;12.724;2024-03-06T01:49:04;25.95;;;11.40;;
73898;SDS011;62234;50.892;12.724;2024-03-06T01:51:30;22.85;;;10.18;;
73898;SDS011;62234;50.892;12.724;2024-03-06T01:53:57;26.25;;;11.25;;
73898;SDS011;62234;50.892;12.724;2024-03-06T01:56:23;23.02;;;11.07;;
73898;SDS011;62234;50.892;12.724;2024-03-06T01:58:49;20.63;;;11.32;;
73898;SDS011;62234;50.892;12.724;2024-03-06T02:01:15;21.73;;;10.65;;
73898;SDS011;62234;50.892;12.724;2024-03-06T02:03:42;23.45;;;10.90;;
73898;SDS011;62234;50.892;12.724;2024-03-06T02:06:08;21.67;;;9.88;;
73898;SDS011;62234;50.892;12.724;2024-03-06T02:08:36;21.08;;;10.73;;
73898;SDS011;62234;50.892;12.724;2024-03-06T02:11:02;25.90;;;11.48;;
73898;SDS011;62234;50.892;12.724;2024-03-06T02:13:28;27.00;;;11.02;;
73898;SDS011;62234;50.892;12.724;2024-03-06T02:15:54;23.65;;;11.10;;
73898;SDS011;62234;50.892;12.724;2024-03-06T02:18:20;23.63;;;11.07;;
73898;SDS011;62234;50.892;12.724;2024-03-06T02:20:46;24.63;;;11.60;;
73898;SDS011;62234;50.892;12.724;2024-03-06T02:23:13;24.88;;;12.30;;
73898;SDS011;62234;50.892;12.724;2024-03-06T02:25:39;24.80;;;11.75;;
73898;SDS011;62234;50.892;12.724;2024-03-06T02:28:06;24.30;;;11.98;;
73898;SDS011;62234;50.892;12.724;2024-03-06T02:30:32;20.95;;;11.25;;
73898;SDS011;62234;50.892;12.724;2024-03-06T02:33:01;24.42;;;10.52;;
73898;SDS011;62234;50.892;12.724;2024-03-06T02:35:28;26.17;;;11.75;;
73898;SDS011;62234;50.892;12.724;2024-03-06T02:37:54;29.77;;;13.02;;
73898;SDS011;62234;50.892;12.724;2024-03-06T02:40:21;22.90;;;10.60;;
73898;SDS011;62234;50.892;12.724;2024-03-06T02:42:47;26.13;;;11.85;;
73898;SDS011;62234;50.892;12.724;2024-03-06T02:45:13;25.92;;;11.55;;
73898;SDS011;62234;50.892;12.724;2024-03-06T02:47:39;25.45;;;10.73;;
73898;SDS011;62234;50.892;12.724;2024-03-06T02:50:05;27.05;;;11.77;;
73898;SDS011;62234;50.892;12.724;2024-03-06T02:52:32;24.02;;;10.80;;
73898;SDS011;62234;50.892;12.724;2024-03-06T02:54:58;24.58;;;11.73;;
73898;SDS011;62234;50.892;12.724;2024-03-06T02:57:28;21.13;;;11.20;;
73898;SDS011;62234;50.892;12.724;2024-03-06T02:59:57;26.98;;;11.00;;
73898;SDS011;62234;50.892;12.724;2024-03-06T03:02:23;24.35;;;11.80;;
73898;SDS011;62234;50.892;12.724;2024-03-06T03:04:50;25.83;;;11.48;;
73898;SDS011;62234;50.892;12.724;2024-03-06T03:07:17;25.20;;;10.98;;
73898;SDS011;62234;50.892;12.724;2024-03-06T03:09:43;22.40;;;10.93;;
73898;SDS011;62234;50.892;12.724;2024-03-06T03:12:09;23.15;;;9.77;;
73898;SDS011;62234;50.892;12.724;2024-03-06T03:14:36;27.33;;;11.20;;
73898;SDS011;62234;50.892;12.724;2024-03-06T03:17:02;23.73;;;10.10;;
73898;SDS011;62234;50.892;12.724;2024-03-06T03:19:30;22.13;;;11.23;;
73898;SDS011;62234;50.892;12.724;2024-03-06T03:21:56;22.27;;;11.50;;
73898;SDS011;62234;50.892;12.724;2024-03-06T03:24:22;18.08;;;9.43;;
73898;SDS011;62234;50.892;12.724;2024-03-06T03:26:50;29.58;;;11.15;;
73898;SDS011;62234;50.892;12.724;2024-03-06T03:29:16;26.42;;;11.32;;
73898;SDS011;62234;50.892;12.724;2024-03-06T03:31:42;22.60;;;10.60;;
73898;SDS011;62234;50.892;12.724;2024-03-06T03:34:08;22.67;;;10.32;;
73898;SDS011;62234;50.892;12.724;2024-03-06T03:36:34;23.58;;;11.68;;
73898;SDS011;62234;50.892;12.724;2024-03-06T03:39:02;26.85;;;11.15;;
73898;SDS011;62234;50.892;12.724;2024-03-06T03:41:28;31.13;;;12.02;;
73898;SDS011;62234;50.892;12.724;2024-03-06T03:43:54;23.40;;;11.07;;
73898;SDS011;62234;50.892;12.724;2024-03-06T03:46:20;24.98;;;11.73;;
73898;SDS011;62234;50.892;12.724;2024-03-06T03:48:46;22.65;;;10.48;;
73898;SDS011;62234;50.892;12.724;2024-03-06T03:51:12;21.95;;;10.45;;
73898;SDS011;62234;50.892;12.724;2024-03-06T03:53:39;24.55;;;11.93;;
73898;SDS011;62234;50.892;12.724;2024-03-06T03:56:05;24.02;;;12.13;;
73898;SDS011;62234;50.892;12.724;2024-03-06T03:58:31;24.80;;;10.48;;
73898;SDS011;62234;50.892;12.724;2024-03-06T04:00:57;22.33;;;10.65;;
73898;SDS011;62234;50.892;12.724;2024-03-06T04:03:23;20.73;;;10.55;;
73898;SDS011;62234;50.892;12.724;2024-03-06T04:05:49;25.25;;;11.60;;
73898;SDS011;62234;50.892;12.724;2024-03-06T04:08:15;24.73;;;10.82;;
73898;SDS011;62234;50.892;12.724;2024-03-06T04:10:42;20.85;;;10.57;;
73898;SDS011;62234;50.892;12.724;2024-03-06T04:13:10;24.92;;;11.02;;
73898;SDS011;62234;50.892;12.724;2024-03-06T04:15:36;25.13;;;11.43;;
73898;SDS011;62234;50.892;12.724;2024-03-06T04:18:02;25.20;;;11.68;;
73898;SDS011;62234;50.892;12.724;2024-03-06T04:20:27;24.13;;;10.95;;
73898;SDS011;62234;50.892;12.724;2024-03-06T04:22:54;22.33;;;11.13;;
73898;SDS011;62234;50.892;12.724;2024-03-06T04:25:19;25.80;;;11.57;;
73898;SDS011;62234;50.892;12.724;2024-03-06T04:27:45;28.73;;;10.77;;
73898;SDS011;62234;50.892;12.724;2024-03-06T04:30:11;30.17;;;11.70;;
73898;SDS011;62234;50.892;12.724;2024-03-06T04:32:38;22.38;;;11.40;;
73898;SDS011;62234;50.892;12.724;2024-03-06T04:35:04;22.70;;;11.02;;
73898;SDS011;62234;50.892;12.724;2024-03-06T04:37:29;22.92;;;11.30;;
73898;SDS011;62234;50.892;12.724;2024-03-06T04:39:55;24.08;;;11.20;;
73898;SDS011;62234;50.892;12.724;2024-03-06T04:42:21;26.65;;;10.68;;
73898;SDS011;62234;50.892;12.724;2024-03-06T04:44:47;27.55;;;11.90;;
73898;SDS011;62234;50.892;12.724;2024-03-06T04:47:14;28.27;;;11.63;;
73898;SDS011;62234;50.892;12.724;2024-03-06T04:49:39;24.52;;;11.00;;
73898;SDS011;62234;50.892;12.724;2024-03-06T04:52:05;23.38;;;11.05;;
73898;SDS011;62234;50.892;12.724;2024-03-06T04:54:31;27.10;;;10.73;;
73898;SDS011;62234;50.892;12.724;2024-03-06T04:56:58;24.45;;;10.05;;
73898;SDS011;62234;50.892;12.724;2024-03-06T04:59:24;26.35;;;12.05;;
73898;SDS011;62234;50.892;12.724;2024-03-06T05:01:51;26.33;;;12.23;;
73898;SDS011;62234;50.892;12.724;2024-03-06T05:04:17;26.55;;;12.70;;
73898;SDS011;62234;50.892;12.724;2024-03-06T05:06:43;31.92;;;13.23;;
73898;SDS011;62234;50.892;12.724;2024-03-06T05:09:08;20.65;;;11.18;;
73898;SDS011;62234;50.892;12.724;2024-03-06T05:11:36;26.90;;;11.85;;
73898;SDS011;62234;50.892;12.724;2024-03-06T05:14:03;27.67;;;11.40;;
73898;SDS011;62234;50.892;12.724;2024-03-06T05:16:29;33.38;;;12.57;;
73898;SDS011;62234;50.892;12.724;2024-03-06T05:18:55;25.63;;;11.75;;
73898;SDS011;62234;50.892;12.724;2024-03-06T05:21:21;32.47;;;13.02;;
73898;SDS011;62234;50.892;12.724;2024-03-06T05:23:47;25.33;;;11.73;;
73898;SDS011;62234;50.892;12.724;2024-03-06T05:26:14;28.83;;;12.13;;
73898;SDS011;62234;50.892;12.724;2024-03-06T05:28:41;23.92;;;11.48;;
73898;SDS011;62234;50.892;12.724;2024-03-06T05:31:15;24.55;;;11.20;;
73898;SDS011;62234;50.892;12.724;2024-03-06T05:33:42;22.75;;;11.32;;
73898;SDS011;62234;50.892;12.724;2024-03-06T05:36:08;30.90;;;12.10;;
73898;SDS011;62234;50.892;12.724;2024-03-06T05:38:34;24.55;;;12.50;;
73898;SDS011;62234;50.892;12.724;2024-03-06T05:41:00;25.55;;;11.25;;
73898;SDS011;62234;50.892;12.724;2024-03-06T05:43:27;27.70;;;11.50;;
73898;SDS011;62234;50.892;12.724;2024-03-06T05:45:53;24.10;;;11.65;;
73898;SDS011;62234;50.892;12.724;2024-03-06T05:48:19;27.65;;;11.80;;
73898;SDS011;62234;50.892;12.724;2024-03-06T05:50:45;25.83;;;12.45;;
73898;SDS011;62234;50.892;12.724;2024-03-06T05:53:11;29.27;;;11.48;;
73898;SDS011;62234;50.892;12.724;2024-03-06T05:55:37;31.25;;;13.30;;
73898;SDS011;62234;50.892;12.724;2024-03-06T05:58:03;32.00;;;13.00;;
73898;SDS011;62234;50.892;12.724;2024-03-06T06:00:30;28.67;;;12.40;;
73898;SDS011;62234;50.892;12.724;2024-03-06T06:02:56;24.67;;;11.65;;
73898;SDS011;62234;50.892;12.724;2024-03-06T06:05:22;26.20;;;11.50;;
73898;SDS011;62234;50.892;12.724;2024-03-06T06:07:49;27.42;;;11.77;;
73898;SDS011;62234;50.892;12.724;2024-03-06T06:10:15;26.63;;;11.85;;
73898;SDS011;62234;50.892;12.724;2024-03-06T06:12:41;24.30;;;11.95;;
73898;SDS011;62234;50.892;12.724;2024-03-06T06:15:07;27.70;;;11.15;;
73898;SDS011;62234;50.892;12.724;2024-03-06T06:17:33;26.00;;;11.82;;
73898;SDS011;62234;50.892;12.724;2024-03-06T06:20:00;31.35;;;12.63;;
73898;SDS011;62234;50.892;12.724;2024-03-06T06:22:28;25.85;;;12.02;;
73898;SDS011;62234;50.892;12.724;2024-03-06T06:24:54;22.70;;;10.93;;
73898;SDS011;62234;50.892;12.724;2024-03-06T06:27:21;27.35;;;12.55;;
73898;SDS011;62234;50.892;12.724;2024-03-06T06:29:47;29.30;;;12.98;;
73898;SDS011;62234;50.892;12.724;2024-03-06T06:32:13;28.50;;;12.38;;
73898;SDS011;62234;50.892;12.724;2024-03-06T06:34:39;29.25;;;12.63;;
73898;SDS011;62234;50.892;12.724;2024-03-06T06:37:05;39.00;;;15.90;;
73898;SDS011;62234;50.892;12.724;2024-03-06T06:39:31;42.17;;;16.83;;
73898;SDS011;62234;50.892;12.724;2024-03-06T06:41:59;35.83;;;16.20;;
73898;SDS011;62234;50.892;12.724;2024-03-06T06:44:25;32.22;;;15.23;;
73898;SDS011;62234;50.892;12.724;2024-03-06T06:46:51;33.33;;;14.93;;
73898;SDS011;62234;50.892;12.724;2024-03-06T06:49:17;35.72;;;14.60;;
73898;SDS011;62234;50.892;12.724;2024-03-06T06:51:44;38.30;;;14.93;;
73898;SDS011;62234;50.892;12.724;2024-03-06T06:54:10;37.65;;;13.88;;
73898;SDS011;62234;50.892;12.724;2024-03-06T06:56:36;34.30;;;13.23;;
73898;SDS011;62234;50.892;12.724;2024-03-06T06:59:01;29.92;;;14.25;;
73898;SDS011;62234;50.892;12.724;2024-03-06T07:01:27;28.50;;;13.40;;
73898;SDS011;62234;50.892;12.724;2024-03-06T07:03:53;30.15;;;13.80;;
73898;SDS011;62234;50.892;12.724;2024-03-06T07:06:19;28.55;;;12.60;;
73898;SDS011;62234;50.892;12.724;2024-03-06T07:08:46;39.03;;;14.73;;
73898;SDS011;62234;50.892;12.724;2024-03-06T07:11:12;29.50;;;12.40;;
73898;SDS011;62234;50.892;12.724;2024-03-06T07:13:38;35.45;;;13.73;;
73898;SDS011;62234;50.892;12.724;2024-03-06T07:16:04;33.63;;;13.57;;
73898;SDS011;62234;50.892;12.724;2024-03-06T07:18:30;34.90;;;13.98;;
73898;SDS011;62234;50.892;12.724;2024-03-06T07:20:56;32.15;;;12.38;;
73898;SDS011;62234;50.892;12.724;2024-03-06T07:23:22;32.17;;;13.43;;
73898;SDS011;62234;50.892;12.724;2024-03-06T07:25:48;26.58;;;12.73;;
73898;SDS011;62234;50.892;12.724;2024-03-06T07:28:14;25.48;;;12.38;;
73898;SDS011;62234;50.892;12.724;2024-03-06T07:30:40;31.77;;;11.60;;
73898;SDS011;62234;50.892;12.724;2024-03-06T07:33:05;31.33;;;14.43;;
73898;SDS011;62234;50.892;12.724;2024-03-06T07:35:32;30.30;;;13.30;;
73898;SDS011;62234;50.892;12.724;2024-03-06T07:38:01;29.10;;;12.88;;
73898;SDS011;62234;50.892;12.724;2024-03-06T07:40:28;29.67;;;13.18;;
73898;SDS011;62234;50.892;12.724;2024-03-06T07:42:54;35.55;;;14.18;;
73898;SDS011;62234;50.892;12.724;2024-03-06T07:45:19;32.50;;;14.15;;
73898;SDS011;62234;50.892;12.724;2024-03-06T07:47:45;33.97;;;14.10;;
73898;SDS011;62234;50.892;12.724;2024-03-06T07:50:11;28.63;;;13.23;;
73898;SDS011;62234;50.892;12.724;2024-03-06T07:52:43;34.88;;;12.57;;
73898;SDS011;62234;50.892;12.724;2024-03-06T07:55:10;33.28;;;14.10;;
73898;SDS011;62234;50.892;12.724;2024-03-06T07:57:35;32.85;;;14.82;;
73898;SDS011;62234;50.892;12.724;2024-03-06T08:00:02;38.40;;;14.35;;
73898;SDS011;62234;50.892;12.724;2024-03-06T08:02:42;34.72;;;14.82;;
73898;SDS011;62234;50.892;12.724;2024-03-06T08:05:11;33.30;;;14.48;;
73898;SDS011;62234;50.892;12.724;2024-03-06T08:07:38;31.65;;;14.50;;
73898;SDS011;62234;50.892;12.724;2024-03-06T08:10:06;32.90;;;15.38;;
73898;SDS011;62234;50.892;12.724;2024-03-06T08:12:33;29.13;;;14.02;;
73898;SDS011;62234;50.892;12.724;2024-03-06T08:14:59;34.47;;;14.38;;
73898;SDS011;62234;50.892;12.724;2024-03-06T08:17:26;34.17;;;14.13;;
73898;SDS011;62234;50.892;12.724;2024-03-06T08:19:52;37.15;;;16.00;;
73898;SDS011;62234;50.892;12.724;2024-03-06T08:22:18;32.90;;;15.55;;
73898;SDS011;62234;50.892;12.724;2024-03-06T08:24:44;32.85;;;15.15;;
73898;SDS011;62234;50.892;12.724;2024-03-06T08:27:10;34.70;;;14.20;;
73898;SDS011;62234;50.892;12.724;2024-03-06T08:29:36;38.17;;;17.05;;
73898;SDS011;62234;50.892;12.724;2024-03-06T08:32:02;37.05;;;15.20;;
73898;SDS011;62234;50.892;12.724;2024-03-06T08:34:28;38.95;;;16.52;;
73898;SDS011;62234;50.892;12.724;2024-03-06T08:36:56;35.50;;;15.68;;
73898;SDS011;62234;50.892;12.724;2024-03-06T08:39:22;34.33;;;15.70;;
73898;SDS011;62234;50.892;12.724;2024-03-06T08:41:48;37.80;;;17.00;;
73898;SDS011;62234;50.892;12.724;2024-03-06T08:44:14;36.17;;;16.85;;
73898;SDS011;62234;50.892;12.724;2024-03-06T08:46:40;35.10;;;15.65;;
73898;SDS011;62234;50.892;12.724;2024-03-06T08:49:06;40.25;;;16.88;;
73898;SDS011;62234;50.892;12.724;2024-03-06T08:51:32;35.47;;;15.93;;
73898;SDS011;62234;50.892;12.724;2024-03-06T08:53:58;30.92;;;14.90;;
73898;SDS011;62234;50.892;12.724;2024-03-06T08:56:24;35.70;;;15.18;;
73898;SDS011;62234;50.892;12.724;2024-03-06T08:58:50;37.70;;;16.55;;
73898;SDS011;62234;50.892;12.724;2024-03-06T09:01:16;33.42;;;16.88;;
73898;SDS011;62234;50.892;12.724;2024-03-06T09:03:42;35.10;;;16.27;;
73898;SDS011;62234;50.892;12.724;2024-03-06T09:06:08;39.38;;;16.80;;
73898;SDS011;62234;50.892;12.724;2024-03-06T09:08:35;34.75;;;15.45;;
73898;SDS011;62234;50.892;12.724;2024-03-06T09:11:01;35.67;;;16.90;;
73898;SDS011;62234;50.892;12.724;2024-03-06T09:13:27;40.10;;;15.52;;
73898;SDS011;62234;50.892;12.724;2024-03-06T09:15:53;38.28;;;16.02;;
73898;SDS011;62234;50.892;12.724;2024-03-06T09:18:19;37.08;;;16.40;;
73898;SDS011;62234;50.892;12.724;2024-03-06T09:20:46;37.38;;;16.08;;
73898;SDS011;62234;50.892;12.724;2024-03-06T09:23:12;40.25;;;16.60;;
73898;SDS011;62234;50.892;12.724;2024-03-06T09:25:40;33.25;;;14.18;;
73898;SDS011;62234;50.892;12.724;2024-03-06T09:28:06;39.63;;;16.88;;
73898;SDS011;62234;50.892;12.724;2024-03-06T09:30:33;29.42;;;13.88;;
73898;SDS011;62234;50.892;12.724;2024-03-06T09:32:59;34.67;;;14.77;;
73898;SDS011;62234;50.892;12.724;2024-03-06T09:35:25;30.20;;;15.30;;
73898;SDS011;62234;50.892;12.724;2024-03-06T09:37:51;30.20;;;13.75;;
73898;SDS011;62234;50.892;12.724;2024-03-06T09:40:20;35.22;;;15.77;;
73898;SDS011;62234;50.892;12.724;2024-03-06T09:42:47;34.15;;;14.85;;
73898;SDS011;62234;50.892;12.724;2024-03-06T09:45:14;30.90;;;14.65;;
73898;SDS011;62234;50.892;12.724;2024-03-06T09:47:40;33.90;;;15.77;;
73898;SDS011;62234;50.892;12.724;2024-03-06T09:50:08;34.55;;;15.15;;
73898;SDS011;62234;50.892;12.724;2024-03-06T09:52:34;35.40;;;14.57;;
73898;SDS011;62234;50.892;12.724;2024-03-06T09:55:02;32.55;;;15.38;;
73898;SDS011;62234;50.892;12.724;2024-03-06T09:57:28;28.98;;;14.40;;
73898;SDS011;62234;50.892;12.724;2024-03-06T09:59:54;33.08;;;14.75;;
73898;SDS011;62234;50.892;12.724;2024-03-06T10:02:41;34.72;;;14.32;;
73898;SDS011;62234;50.892;12.724;2024-03-06T10:05:21;31.45;;;14.40;;
73898;SDS011;62234;50.892;12.724;2024-03-06T10:07:47;31.70;;;14.73;;
73898;SDS011;62234;50.892;12.724;2024-03-06T10:10:14;35.42;;;15.02;;
73898;SDS011;62234;50.892;12.724;2024-03-06T10:12:40;31.42;;;14.05;;
73898;SDS011;62234;50.892;12.724;2024-03-06T10:15:10;32.00;;;15.73;;
73898;SDS011;62234;50.892;12.724;2024-03-06T10:17:37;35.83;;;14.68;;
73898;SDS011;62234;50.892;12.724;2024-03-06T10:20:22;30.20;;;13.70;;
73898;SDS011;62234;50.892;12.724;2024-03-06T10:22:49;35.53;;;15.38;;
73898;SDS011;62234;50.892;12.724;2024-03-06T10:25:18;29.80;;;13.48;;
73898;SDS011;62234;50.892;12.724;2024-03-06T10:27:44;32.60;;;15.27;;
73898;SDS011;62234;50.892;12.724;2024-03-06T10:30:10;35.85;;;14.50;;
73898;SDS011;62234;50.892;12.724;2024-03-06T10:32:41;42.63;;;17.70;;
73898;SDS011;62234;50.892;12.724;2024-03-06T10:35:17;30.92;;;15.80;;
73898;SDS011;62234;50.892;12.724;2024-03-06T10:37:43;32.33;;;14.50;;
73898;SDS011;62234;50.892;12.724;2024-03-06T10:40:10;33.70;;;15.30;;
73898;SDS011;62234;50.892;12.724;2024-03-06T10:42:38;27.63;;;13.35;;
73898;SDS011;62234;50.892;12.724;2024-03-06T10:45:07;32.33;;;15.10;;
73898;SDS011;62234;50.892;12.724;2024-03-06T10:47:33;30.00;;;15.18;;
73898;SDS011;62234;50.892;12.724;2024-03-06T10:50:00;31.38;;;14.13;;
73898;SDS011;62234;50.892;12.724;2024-03-06T10:52:29;31.38;;;14.48;;
73898;SDS011;62234;50.892;12.724;2024-03-06T10:54:58;29.80;;;15.63;;
73898;SDS011;62234;50.892;12.724;2024-03-06T10:57:24;26.05;;;13.07;;
73898;SDS011;62234;50.892;12.724;2024-03-06T10:59:51;28.70;;;13.45;;
73898;SDS011;62234;50.892;12.724;2024-03-06T11:02:18;25.60;;;13.45;;
73898;SDS011;62234;50.892;12.724;2024-03-06T11:04:44;26.95;;;13.50;;
73898;SDS011;62234;50.892;12.724;2024-03-06T11:07:10;24.70;;;12.57;;
73898;SDS011;62234;50.892;12.724;2024-03-06T11:09:36;31.88;;;13.90;;
73898;SDS011;62234;50.892;12.724;2024-03-06T11:12:06;30.33;;;13.57;;
73898;SDS011;62234;50.892;12.724;2024-03-06T11:14:36;28.42;;;13.30;;
73898;SDS011;62234;50.892;12.724;2024-03-06T11:17:04;28.58;;;12.95;;
73898;SDS011;62234;50.892;12.724;2024-03-06T11:19:33;25.10;;;12.98;;
73898;SDS011;62234;50.892;12.724;2024-03-06T11:22:18;26.75;;;13.07;;
73898;SDS011;62234;50.892;12.724;2024-03-06T11:24:44;24.05;;;13.60;;
73898;SDS011;62234;50.892;12.724;2024-03-06T11:27:10;27.50;;;12.95;;
73898;SDS011;62234;50.892;12.724;2024-03-06T11:32:24;22.65;;;11.93;;
73898;SDS011;62234;50.892;12.724;2024-03-06T11:34:50;36.08;;;14.05;;
73898;SDS011;62234;50.892;12.724;2024-03-06T11:37:20;23.73;;;11.98;;
73898;SDS011;62234;50.892;12.724;2024-03-06T11:42:13;22.85;;;11.48;;
73898;SDS011;62234;50.892;12.724;2024-03-06T11:44:52;23.48;;;12.38;;
73898;SDS011;62234;50.892;12.724;2024-03-06T11:47:22;21.83;;;11.30;;
73898;SDS011;62234;50.892;12.724;2024-03-06T11:49:48;20.95;;;12.00;;
73898;SDS011;62234;50.892;12.724;2024-03-06T11:52:14;22.65;;;12.00;;
73898;SDS011;62234;50.892;12.724;2024-03-06T11:54:40;26.17;;;11.95;;
73898;SDS011;62234;50.892;12.724;2024-03-06T11:57:06;21.20;;;12.15;;
73898;SDS011;62234;50.892;12.724;2024-03-06T11:59:36;22.00;;;11.70;;
73898;SDS011;62234;50.892;12.724;2024-03-06T12:02:05;20.63;;;12.05;;
73898;SDS011;62234;50.892;12.724;2024-03-06T12:04:31;20.25;;;11.60;;
73898;SDS011;62234;50.892;12.724;2024-03-06T12:07:02;22.17;;;11.30;;
73898;SDS011;62234;50.892;12.724;2024-03-06T12:09:35;18.98;;;10.90;;
73898;SDS011;62234;50.892;12.724;2024-03-06T12:12:01;20.58;;;11.07;;
73898;SDS011;62234;50.892;12.724;2024-03-06T12:14:28;22.75;;;12.30;;
73898;SDS011;62234;50.892;12.724;2024-03-06T12:16:58;20.73;;;11.85;;
73898;SDS011;62234;50.892;12.724;2024-03-06T12:19:27;18.60;;;10.85;;
73898;SDS011;62234;50.892;12.724;2024-03-06T12:21:53;22.00;;;10.80;;
73898;SDS011;62234;50.892;12.724;2024-03-06T12:24:19;21.98;;;11.35;;
73898;SDS011;62234;50.892;12.724;2024-03-06T12:26:46;24.13;;;11.57;;
73898;SDS011;62234;50.892;12.724;2024-03-06T12:29:17;22.33;;;12.25;;
73898;SDS011;62234;50.892;12.724;2024-03-06T12:31:44;23.92;;;12.32;;
73898;SDS011;62234;50.892;12.724;2024-03-06T12:34:13;22.67;;;12.40;;
73898;SDS011;62234;50.892;12.724;2024-03-06T12:36:40;22.90;;;12.23;;
73898;SDS011;62234;50.892;12.724;2024-03-06T12:39:06;19.60;;;11.45;;
73898;SDS011;62234;50.892;12.724;2024-03-06T12:41:39;19.10;;;11.57;;
73898;SDS011;62234;50.892;12.724;2024-03-06T12:44:05;18.65;;;11.15;;
73898;SDS011;62234;50.892;12.724;2024-03-06T12:46:34;22.75;;;11.45;;
73898;SDS011;62234;50.892;12.724;2024-03-06T12:49:00;23.17;;;13.07;;
73898;SDS011;62234;50.892;12.724;2024-03-06T12:51:26;21.45;;;12.18;;
73898;SDS011;62234;50.892;12.724;2024-03-06T12:53:52;24.02;;;13.15;;
73898;SDS011;62234;50.892;12.724;2024-03-06T12:56:18;25.98;;;11.90;;
73898;SDS011;62234;50.892;12.724;2024-03-06T12:58:44;21.40;;;11.70;;
73898;SDS011;62234;50.892;12.724;2024-03-06T13:01:10;21.38;;;11.75;;
73898;SDS011;62234;50.892;12.724;2024-03-06T13:03:36;22.98;;;12.73;;
73898;SDS011;62234;50.892;12.724;2024-03-06T13:06:03;25.02;;;11.82;;
73898;SDS011;62234;50.892;12.724;2024-03-06T13:08:29;18.77;;;11.55;;
73898;SDS011;62234;50.892;12.724;2024-03-06T13:10:55;22.58;;;11.45;;
73898;SDS011;62234;50.892;12.724;2024-03-06T13:13:21;24.27;;;13.02;;
73898;SDS011;62234;50.892;12.724;2024-03-06T13:15:51;23.50;;;13.15;;
73898;SDS011;62234;50.892;12.724;2024-03-06T13:18:17;19.83;;;12.20;;
73898;SDS011;62234;50.892;12.724;2024-03-06T13:20:43;25.42;;;12.57;;
73898;SDS011;62234;50.892;12.724;2024-03-06T13:23:10;20.40;;;12.00;;
73898;SDS011;62234;50.892;12.724;2024-03-06T13:25:36;23.13;;;12.13;;
73898;SDS011;62234;50.892;12.724;2024-03-06T13:28:02;27.63;;;13.50;;
73898;SDS011;62234;50.892;12.724;2024-03-06T13:30:28;27.48;;;13.23;;
73898;SDS011;62234;50.892;12.724;2024-03-06T13:32:54;23.60;;;12.05;;
73898;SDS011;62234;50.892;12.724;2024-03-06T13:35:20;23.77;;;13.00;;
73898;SDS011;62234;50.892;12.724;2024-03-06T13:37:46;22.63;;;13.38;;
73898;SDS011;62234;50.892;12.724;2024-03-06T13:40:14;23.25;;;13.80;;
73898;SDS011;62234;50.892;12.724;2024-03-06T13:42:40;22.13;;;13.55;;
73898;SDS011;62234;50.892;12.724;2024-03-06T13:45:06;22.88;;;13.27;;
73898;SDS011;62234;50.892;12.724;2024-03-06T13:47:39;21.15;;;12.70;;
73898;SDS011;62234;50.892;12.724;2024-03-06T13:50:09;23.35;;;12.25;;
73898;SDS011;62234;50.892;12.724;2024-03-06T13:52:35;25.48;;;12.27;;
73898;SDS011;62234;50.892;12.724;2024-03-06T13:55:01;24.63;;;12.38;;
73898;SDS011;62234;50.892;12.724;2024-03-06T13:57:29;19.48;;;11.52;;
73898;SDS011;62234;50.892;12.724;2024-03-06T13:59:55;25.25;;;12.20;;
73898;SDS011;62234;50.892;12.724;2024-03-06T14:02:21;21.25;;;12.23;;
73898;SDS011;62234;50.892;12.724;2024-03-06T14:04:47;24.52;;;13.02;;
73898;SDS011;62234;50.892;12.724;2024-03-06T14:07:13;23.75;;;12.73;;
73898;SDS011;62234;50.892;12.724;2024-03-06T14:09:39;22.73;;;13.43;;
73898;SDS011;62234;50.892;12.724;2024-03-06T14:12:05;22.45;;;11.80;;